sensor_id;sensor_type;location;lat;lon;timestamp;temperature;humidity
2300;DHT22;1158;48.750;9.078;2023-05-10T00:00:28;12.30;99.90
2300;DHT22;1158;48.750;9.078;2023-05-10T00:02:55;12.30;99.90
2300;DHT22;1158;48.750;9.078;2023-05-10T00:05:21;12.30;99.90
2300;DHT22;1158;48.750;9.078;2023-05-10T00:07:48;12.30;99.90
2300;DHT22;1158;48.750;9.078;2023-05-10T00:10:15;12.20;99.90
2300;DHT22;1158;48.750;9.078;2023-05-10T00:12:43;12.10;99.90
2300;DHT22;1158;48.750;9.078;2023-05-10T00:15:10;12.10;99.90
2300;DHT22;1158;48.750;9.078;2023-05-10T00:17:37;12.00;99.90
2300;DHT22;1158;48.750;9.078;2023-05-10T00:20:04;12.00;99.90
2300;DHT22;1158;48.750;9.078;2023-05-10T00:22:31;12.00;99.90
2300;DHT22;1158;48.750;9.078;2023-05-10T00:24:58;12.00;99.90
2300;DHT22;1158;48.750;9.078;2023-05-10T00:27:25;11.90;99.90
2300;DHT22;1158;48.750;9.078;2023-05-10T00:29:53;11.90;99.90
2300;DHT22;1158;48.750;9.078;2023-05-10T00:32:20;11.80;99.90
2300;DHT22;1158;48.750;9.078;2023-05-10T00:34:46;11.70;99.90
2300;DHT22;1158;48.750;9.078;2023-05-10T00:37:13;11.70;99.90
2300;DHT22;1158;48.750;9.078;2023-05-10T00:39:40;11.60;99.90
2300;DHT22;1158;48.750;9.078;2023-05-10T00:42:06;11.60;99.90
2300;DHT22;1158;48.750;9.078;2023-05-10T00:44:33;11.50;99.90
2300;DHT22;1158;48.750;9.078;2023-05-10T00:47:01;11.50;99.90
2300;DHT22;1158;48.750;9.078;2023-05-10T00:49:28;11.40;99.90
2300;DHT22;1158;48.750;9.078;2023-05-10T00:51:55;11.40;99.90
2300;DHT22;1158;48.750;9.078;2023-05-10T00:54:22;11.40;99.90
2300;DHT22;1158;48.750;9.078;2023-05-10T00:56:49;11.40;99.90
2300;DHT22;1158;48.750;9.078;2023-05-10T00:59:16;11.30;99.90
2300;DHT22;1158;48.750;9.078;2023-05-10T01:01:43;11.30;99.90
2300;DHT22;1158;48.750;9.078;2023-05-10T01:04:12;11.30;99.90
2300;DHT22;1158;48.750;9.078;2023-05-10T01:06:39;11.30;99.90
2300;DHT22;1158;48.750;9.078;2023-05-10T01:09:06;11.30;99.90
2300;DHT22;1158;48.750;9.078;2023-05-10T01:11:33;11.20;99.90
2300;DHT22;1158;48.750;9.078;2023-05-10T01:14:01;11.20;99.90
2300;DHT22;1158;48.750;9.078;2023-05-10T01:16:29;11.20;99.90
2300;DHT22;1158;48.750;9.078;2023-05-10T01:18:58;11.20;99.90
2300;DHT22;1158;48.750;9.078;2023-05-10T01:21:36;11.20;99.90
2300;DHT22;1158;48.750;9.078;2023-05-10T01:24:35;11.20;99.90
2300;DHT22;1158;48.750;9.078;2023-05-10T01:27:25;11.20;99.90
2300;DHT22;1158;48.750;9.078;2023-05-10T01:30:27;11.10;99.90
2300;DHT22;1158;48.750;9.078;2023-05-10T01:33:01;11.10;99.90
2300;DHT22;1158;48.750;9.078;2023-05-10T01:35:39;11.10;99.90
2300;DHT22;1158;48.750;9.078;2023-05-10T01:38:13;11.10;99.90
2300;DHT22;1158;48.750;9.078;2023-05-10T01:40:52;11.00;99.90
2300;DHT22;1158;48.750;9.078;2023-05-10T01:43:24;11.00;99.90
2300;DHT22;1158;48.750;9.078;2023-05-10T01:45:59;11.00;99.90
2300;DHT22;1158;48.750;9.078;2023-05-10T01:48:32;11.00;99.90
2300;DHT22;1158;48.750;9.078;2023-05-10T01:50:59;11.00;99.90
2300;DHT22;1158;48.750;9.078;2023-05-10T01:53:27;11.00;99.90
2300;DHT22;1158;48.750;9.078;2023-05-10T01:55:55;11.00;99.90
2300;DHT22;1158;48.750;9.078;2023-05-10T01:58:25;10.90;99.90
2300;DHT22;1158;48.750;9.078;2023-05-10T02:00:54;10.90;99.90
2300;DHT22;1158;48.750;9.078;2023-05-10T02:03:23;10.90;99.90
2300;DHT22;1158;48.750;9.078;2023-05-10T02:05:52;10.90;99.90
2300;DHT22;1158;48.750;9.078;2023-05-10T02:08:21;10.90;99.90
2300;DHT22;1158;48.750;9.078;2023-05-10T02:10:51;10.90;99.90
2300;DHT22;1158;48.750;9.078;2023-05-10T02:13:19;10.90;99.90
2300;DHT22;1158;48.750;9.078;2023-05-10T02:15:48;10.80;99.90
2300;DHT22;1158;48.750;9.078;2023-05-10T02:18:16;10.80;99.90
2300;DHT22;1158;48.750;9.078;2023-05-10T02:20:44;10.80;99.90
2300;DHT22;1158;48.750;9.078;2023-05-10T02:23:13;10.80;99.90
2300;DHT22;1158;48.750;9.078;2023-05-10T02:25:41;10.80;99.90
2300;DHT22;1158;48.750;9.078;2023-05-10T02:28:10;10.70;99.90
2300;DHT22;1158;48.750;9.078;2023-05-10T02:30:37;10.70;99.90
2300;DHT22;1158;48.750;9.078;2023-05-10T02:33:05;10.70;99.90
2300;DHT22;1158;48.750;9.078;2023-05-10T02:35:32;10.70;99.90
2300;DHT22;1158;48.750;9.078;2023-05-10T02:38:00;10.60;99.90
2300;DHT22;1158;48.750;9.078;2023-05-10T02:40:30;10.60;99.90
2300;DHT22;1158;48.750;9.078;2023-05-10T02:42:57;10.70;99.90
2300;DHT22;1158;48.750;9.078;2023-05-10T02:45:29;10.70;99.90
2300;DHT22;1158;48.750;9.078;2023-05-10T02:47:56;10.60;99.90
2300;DHT22;1158;48.750;9.078;2023-05-10T02:50:25;10.60;99.90
2300;DHT22;1158;48.750;9.078;2023-05-10T02:53:00;10.70;99.90
2300;DHT22;1158;48.750;9.078;2023-05-10T02:55:33;10.60;99.90
2300;DHT22;1158;48.750;9.078;2023-05-10T02:58:02;10.60;99.90
2300;DHT22;1158;48.750;9.078;2023-05-10T03:00:29;10.60;99.90
2300;DHT22;1158;48.750;9.078;2023-05-10T03:02:56;10.60;99.90
2300;DHT22;1158;48.750;9.078;2023-05-10T03:05:23;10.70;99.90
2300;DHT22;1158;48.750;9.078;2023-05-10T03:07:50;10.70;99.90
2300;DHT22;1158;48.750;9.078;2023-05-10T03:10:17;10.70;99.90
2300;DHT22;1158;48.750;9.078;2023-05-10T03:13:09;10.70;99.90
2300;DHT22;1158;48.750;9.078;2023-05-10T03:15:47;10.80;99.90
2300;DHT22;1158;48.750;9.078;2023-05-10T03:18:22;10.80;99.90
2300;DHT22;1158;48.750;9.078;2023-05-10T03:20:51;10.80;99.90
2300;DHT22;1158;48.750;9.078;2023-05-10T03:23:27;10.80;99.90
2300;DHT22;1158;48.750;9.078;2023-05-10T03:25:54;10.80;99.90
2300;DHT22;1158;48.750;9.078;2023-05-10T03:28:23;10.80;99.90
2300;DHT22;1158;48.750;9.078;2023-05-10T03:30:52;10.80;99.90
2300;DHT22;1158;48.750;9.078;2023-05-10T03:33:19;10.80;99.90
2300;DHT22;1158;48.750;9.078;2023-05-10T03:35:46;10.80;99.90
2300;DHT22;1158;48.750;9.078;2023-05-10T03:38:13;10.80;99.90
2300;DHT22;1158;48.750;9.078;2023-05-10T03:40:40;10.90;99.90
2300;DHT22;1158;48.750;9.078;2023-05-10T03:43:06;10.90;99.90
2300;DHT22;1158;48.750;9.078;2023-05-10T03:45:34;10.90;99.90
2300;DHT22;1158;48.750;9.078;2023-05-10T03:48:01;10.90;99.90
2300;DHT22;1158;48.750;9.078;2023-05-10T03:50:28;10.90;99.90
2300;DHT22;1158;48.750;9.078;2023-05-10T03:52:55;10.90;99.90
2300;DHT22;1158;48.750;9.078;2023-05-10T03:55:22;10.90;99.90
2300;DHT22;1158;48.750;9.078;2023-05-10T03:57:49;10.90;99.90
2300;DHT22;1158;48.750;9.078;2023-05-10T04:00:16;10.90;99.90
2300;DHT22;1158;48.750;9.078;2023-05-10T04:02:44;11.00;99.90
2300;DHT22;1158;48.750;9.078;2023-05-10T04:05:11;11.00;99.90
2300;DHT22;1158;48.750;9.078;2023-05-10T04:07:37;10.90;99.90
2300;DHT22;1158;48.750;9.078;2023-05-10T04:10:05;11.00;99.90
2300;DHT22;1158;48.750;9.078;2023-05-10T04:12:32;11.00;99.90
2300;DHT22;1158;48.750;9.078;2023-05-10T04:14:58;10.90;99.90
2300;DHT22;1158;48.750;9.078;2023-05-10T04:17:25;11.00;99.90
2300;DHT22;1158;48.750;9.078;2023-05-10T04:19:54;10.90;99.90
2300;DHT22;1158;48.750;9.078;2023-05-10T04:22:20;11.00;99.90
2300;DHT22;1158;48.750;9.078;2023-05-10T04:24:47;11.00;99.90
2300;DHT22;1158;48.750;9.078;2023-05-10T04:27:14;11.00;99.90
2300;DHT22;1158;48.750;9.078;2023-05-10T04:29:40;11.00;99.90
2300;DHT22;1158;48.750;9.078;2023-05-10T04:32:07;11.00;99.90
2300;DHT22;1158;48.750;9.078;2023-05-10T04:34:35;11.10;99.90
2300;DHT22;1158;48.750;9.078;2023-05-10T04:37:04;11.10;99.90
2300;DHT22;1158;48.750;9.078;2023-05-10T04:39:30;11.10;99.90
2300;DHT22;1158;48.750;9.078;2023-05-10T04:41:57;11.10;99.90
2300;DHT22;1158;48.750;9.078;2023-05-10T04:44:24;11.10;99.90
2300;DHT22;1158;48.750;9.078;2023-05-10T04:46:50;11.10;99.90
2300;DHT22;1158;48.750;9.078;2023-05-10T04:49:17;11.20;99.90
2300;DHT22;1158;48.750;9.078;2023-05-10T04:51:44;11.10;99.90
2300;DHT22;1158;48.750;9.078;2023-05-10T04:54:12;11.20;99.90
2300;DHT22;1158;48.750;9.078;2023-05-10T04:56:39;11.20;99.90
2300;DHT22;1158;48.750;9.078;2023-05-10T04:59:06;11.30;99.90
2300;DHT22;1158;48.750;9.078;2023-05-10T05:01:32;11.20;99.90
2300;DHT22;1158;48.750;9.078;2023-05-10T05:04:00;11.30;99.90
2300;DHT22;1158;48.750;9.078;2023-05-10T05:06:27;11.30;99.90
2300;DHT22;1158;48.750;9.078;2023-05-10T05:08:53;11.30;99.90
2300;DHT22;1158;48.750;9.078;2023-05-10T05:11:21;11.40;99.90
2300;DHT22;1158;48.750;9.078;2023-05-10T05:13:48;11.50;99.90
2300;DHT22;1158;48.750;9.078;2023-05-10T05:16:15;11.50;99.90
2300;DHT22;1158;48.750;9.078;2023-05-10T05:18:41;11.50;99.90
2300;DHT22;1158;48.750;9.078;2023-05-10T05:21:18;11.50;99.90
2300;DHT22;1158;48.750;9.078;2023-05-10T05:23:45;11.50;99.90
2300;DHT22;1158;48.750;9.078;2023-05-10T05:26:12;11.60;99.90
2300;DHT22;1158;48.750;9.078;2023-05-10T05:28:40;11.60;99.90
2300;DHT22;1158;48.750;9.078;2023-05-10T05:31:07;11.60;99.90
2300;DHT22;1158;48.750;9.078;2023-05-10T05:33:34;11.60;99.90
2300;DHT22;1158;48.750;9.078;2023-05-10T05:36:01;11.70;99.90
2300;DHT22;1158;48.750;9.078;2023-05-10T05:38:28;11.70;99.90
2300;DHT22;1158;48.750;9.078;2023-05-10T05:40:55;11.70;99.90
2300;DHT22;1158;48.750;9.078;2023-05-10T05:43:22;11.70;99.90
2300;DHT22;1158;48.750;9.078;2023-05-10T05:45:52;11.70;99.90
2300;DHT22;1158;48.750;9.078;2023-05-10T05:48:18;11.70;99.90
2300;DHT22;1158;48.750;9.078;2023-05-10T05:50:45;11.70;99.90
2300;DHT22;1158;48.750;9.078;2023-05-10T05:53:15;11.80;99.90
2300;DHT22;1158;48.750;9.078;2023-05-10T05:55:51;11.80;99.90
2300;DHT22;1158;48.750;9.078;2023-05-10T05:58:17;11.90;99.90
2300;DHT22;1158;48.750;9.078;2023-05-10T06:00:44;12.00;99.90
2300;DHT22;1158;48.750;9.078;2023-05-10T06:03:12;12.10;99.90
2300;DHT22;1158;48.750;9.078;2023-05-10T06:05:39;12.00;99.90
2300;DHT22;1158;48.750;9.078;2023-05-10T06:08:06;12.10;99.90
2300;DHT22;1158;48.750;9.078;2023-05-10T06:10:32;12.20;99.90
2300;DHT22;1158;48.750;9.078;2023-05-10T06:12:59;12.20;99.90
2300;DHT22;1158;48.750;9.078;2023-05-10T06:15:26;12.20;99.90
2300;DHT22;1158;48.750;9.078;2023-05-10T06:17:53;12.20;99.90
2300;DHT22;1158;48.750;9.078;2023-05-10T06:20:21;12.30;99.90
2300;DHT22;1158;48.750;9.078;2023-05-10T06:22:48;12.30;99.90
2300;DHT22;1158;48.750;9.078;2023-05-10T06:25:14;12.30;99.90
2300;DHT22;1158;48.750;9.078;2023-05-10T06:27:43;12.40;99.90
2300;DHT22;1158;48.750;9.078;2023-05-10T06:30:10;12.40;99.90
2300;DHT22;1158;48.750;9.078;2023-05-10T06:32:38;12.30;99.90
2300;DHT22;1158;48.750;9.078;2023-05-10T06:35:06;12.10;99.90
2300;DHT22;1158;48.750;9.078;2023-05-10T06:37:34;12.20;99.90
2300;DHT22;1158;48.750;9.078;2023-05-10T06:40:01;12.30;99.90
2300;DHT22;1158;48.750;9.078;2023-05-10T06:42:28;12.20;99.90
2300;DHT22;1158;48.750;9.078;2023-05-10T06:44:55;12.20;99.90
2300;DHT22;1158;48.750;9.078;2023-05-10T06:47:22;12.20;99.90
2300;DHT22;1158;48.750;9.078;2023-05-10T06:49:48;12.20;99.90
2300;DHT22;1158;48.750;9.078;2023-05-10T06:52:15;12.20;99.90
2300;DHT22;1158;48.750;9.078;2023-05-10T06:54:43;12.20;99.90
2300;DHT22;1158;48.750;9.078;2023-05-10T06:57:10;12.30;99.90
2300;DHT22;1158;48.750;9.078;2023-05-10T06:59:36;12.50;99.90
2300;DHT22;1158;48.750;9.078;2023-05-10T07:02:03;12.50;99.90
2300;DHT22;1158;48.750;9.078;2023-05-10T07:04:30;12.70;99.90
2300;DHT22;1158;48.750;9.078;2023-05-10T07:06:57;12.80;99.90
2300;DHT22;1158;48.750;9.078;2023-05-10T07:09:23;12.80;99.90
2300;DHT22;1158;48.750;9.078;2023-05-10T07:11:52;13.00;99.90
2300;DHT22;1158;48.750;9.078;2023-05-10T07:14:18;13.20;99.90
2300;DHT22;1158;48.750;9.078;2023-05-10T07:16:45;13.20;99.90
2300;DHT22;1158;48.750;9.078;2023-05-10T07:19:12;13.30;99.90
2300;DHT22;1158;48.750;9.078;2023-05-10T07:21:39;13.60;99.90
2300;DHT22;1158;48.750;9.078;2023-05-10T07:24:08;13.70;99.90
2300;DHT22;1158;48.750;9.078;2023-05-10T07:26:35;13.80;99.90
2300;DHT22;1158;48.750;9.078;2023-05-10T07:29:03;14.00;99.90
2300;DHT22;1158;48.750;9.078;2023-05-10T07:31:29;14.00;99.90
2300;DHT22;1158;48.750;9.078;2023-05-10T07:33:56;14.10;99.90
2300;DHT22;1158;48.750;9.078;2023-05-10T07:36:23;14.20;99.90
2300;DHT22;1158;48.750;9.078;2023-05-10T07:38:49;14.30;99.90
2300;DHT22;1158;48.750;9.078;2023-05-10T07:41:16;14.50;99.90
2300;DHT22;1158;48.750;9.078;2023-05-10T07:43:43;14.60;99.90
2300;DHT22;1158;48.750;9.078;2023-05-10T07:46:11;14.40;99.90
2300;DHT22;1158;48.750;9.078;2023-05-10T07:48:58;14.40;99.90
2300;DHT22;1158;48.750;9.078;2023-05-10T07:51:25;14.40;99.90
2300;DHT22;1158;48.750;9.078;2023-05-10T07:53:53;14.40;99.90
2300;DHT22;1158;48.750;9.078;2023-05-10T07:56:22;14.40;99.90
2300;DHT22;1158;48.750;9.078;2023-05-10T07:58:49;14.50;99.90
2300;DHT22;1158;48.750;9.078;2023-05-10T08:01:17;14.60;99.90
2300;DHT22;1158;48.750;9.078;2023-05-10T08:03:44;14.70;99.90
2300;DHT22;1158;48.750;9.078;2023-05-10T08:06:11;14.70;99.90
2300;DHT22;1158;48.750;9.078;2023-05-10T08:08:37;14.80;99.90
2300;DHT22;1158;48.750;9.078;2023-05-10T08:11:04;14.90;99.90
2300;DHT22;1158;48.750;9.078;2023-05-10T08:13:31;15.00;99.90
2300;DHT22;1158;48.750;9.078;2023-05-10T08:15:58;15.10;99.90
2300;DHT22;1158;48.750;9.078;2023-05-10T08:18:26;15.20;99.90
2300;DHT22;1158;48.750;9.078;2023-05-10T08:20:52;15.20;99.90
2300;DHT22;1158;48.750;9.078;2023-05-10T08:23:19;15.30;99.90
2300;DHT22;1158;48.750;9.078;2023-05-10T08:25:46;15.50;99.90
2300;DHT22;1158;48.750;9.078;2023-05-10T08:28:12;15.40;99.90
2300;DHT22;1158;48.750;9.078;2023-05-10T08:30:39;15.50;99.90
2300;DHT22;1158;48.750;9.078;2023-05-10T08:33:06;15.30;99.90
2300;DHT22;1158;48.750;9.078;2023-05-10T08:35:34;15.30;99.90
2300;DHT22;1158;48.750;9.078;2023-05-10T08:38:00;15.40;99.90
2300;DHT22;1158;48.750;9.078;2023-05-10T08:40:27;15.50;99.90
2300;DHT22;1158;48.750;9.078;2023-05-10T08:43:01;15.80;99.90
2300;DHT22;1158;48.750;9.078;2023-05-10T08:45:32;15.70;99.90
2300;DHT22;1158;48.750;9.078;2023-05-10T08:48:01;15.90;99.90
2300;DHT22;1158;48.750;9.078;2023-05-10T08:50:29;15.80;99.90
2300;DHT22;1158;48.750;9.078;2023-05-10T08:53:00;16.20;99.90
2300;DHT22;1158;48.750;9.078;2023-05-10T08:55:28;16.30;99.90
2300;DHT22;1158;48.750;9.078;2023-05-10T08:57:55;16.20;99.90
2300;DHT22;1158;48.750;9.078;2023-05-10T09:00:22;16.20;99.90
2300;DHT22;1158;48.750;9.078;2023-05-10T09:02:50;16.10;99.90
2300;DHT22;1158;48.750;9.078;2023-05-10T09:05:16;16.10;99.90
2300;DHT22;1158;48.750;9.078;2023-05-10T09:07:43;16.10;99.90
2300;DHT22;1158;48.750;9.078;2023-05-10T09:10:13;16.00;99.90
2300;DHT22;1158;48.750;9.078;2023-05-10T09:12:41;16.10;99.90
2300;DHT22;1158;48.750;9.078;2023-05-10T09:15:09;15.90;99.90
2300;DHT22;1158;48.750;9.078;2023-05-10T09:17:37;15.70;99.90
2300;DHT22;1158;48.750;9.078;2023-05-10T09:20:06;15.40;99.90
2300;DHT22;1158;48.750;9.078;2023-05-10T09:22:33;15.30;99.90
2300;DHT22;1158;48.750;9.078;2023-05-10T09:25:06;15.00;99.90
2300;DHT22;1158;48.750;9.078;2023-05-10T09:27:35;15.00;99.90
2300;DHT22;1158;48.750;9.078;2023-05-10T09:30:02;15.20;99.90
2300;DHT22;1158;48.750;9.078;2023-05-10T09:32:40;15.20;99.90
2300;DHT22;1158;48.750;9.078;2023-05-10T09:35:10;15.50;99.90
2300;DHT22;1158;48.750;9.078;2023-05-10T09:37:39;15.90;99.90
2300;DHT22;1158;48.750;9.078;2023-05-10T09:40:07;16.00;99.90
2300;DHT22;1158;48.750;9.078;2023-05-10T09:42:36;16.40;99.90
2300;DHT22;1158;48.750;9.078;2023-05-10T09:45:03;16.90;99.90
2300;DHT22;1158;48.750;9.078;2023-05-10T09:47:32;17.20;99.90
2300;DHT22;1158;48.750;9.078;2023-05-10T09:50:00;17.30;99.90
2300;DHT22;1158;48.750;9.078;2023-05-10T09:52:29;17.30;99.90
2300;DHT22;1158;48.750;9.078;2023-05-10T09:54:56;17.40;99.90
2300;DHT22;1158;48.750;9.078;2023-05-10T09:57:24;17.10;99.90
2300;DHT22;1158;48.750;9.078;2023-05-10T09:59:52;17.00;99.90
2300;DHT22;1158;48.750;9.078;2023-05-10T10:02:20;17.30;99.90
2300;DHT22;1158;48.750;9.078;2023-05-10T10:04:49;17.70;99.90
2300;DHT22;1158;48.750;9.078;2023-05-10T10:07:22;18.00;99.90
2300;DHT22;1158;48.750;9.078;2023-05-10T10:09:50;17.70;99.90
2300;DHT22;1158;48.750;9.078;2023-05-10T10:12:17;17.40;99.90
2300;DHT22;1158;48.750;9.078;2023-05-10T10:14:46;17.10;99.90
2300;DHT22;1158;48.750;9.078;2023-05-10T10:17:14;16.90;99.90
2300;DHT22;1158;48.750;9.078;2023-05-10T10:19:41;16.90;99.90
2300;DHT22;1158;48.750;9.078;2023-05-10T10:22:08;16.90;99.90
2300;DHT22;1158;48.750;9.078;2023-05-10T10:24:37;16.90;99.90
2300;DHT22;1158;48.750;9.078;2023-05-10T10:27:12;17.40;99.90
2300;DHT22;1158;48.750;9.078;2023-05-10T10:29:49;17.60;99.90
2300;DHT22;1158;48.750;9.078;2023-05-10T10:32:25;18.00;99.90
2300;DHT22;1158;48.750;9.078;2023-05-10T10:34:59;18.50;99.90
2300;DHT22;1158;48.750;9.078;2023-05-10T10:37:44;18.60;99.90
2300;DHT22;1158;48.750;9.078;2023-05-10T10:40:23;18.70;99.90
2300;DHT22;1158;48.750;9.078;2023-05-10T10:42:51;18.40;99.90
2300;DHT22;1158;48.750;9.078;2023-05-10T10:45:19;17.60;99.90
2300;DHT22;1158;48.750;9.078;2023-05-10T10:47:48;17.20;99.90
2300;DHT22;1158;48.750;9.078;2023-05-10T10:50:15;16.40;99.90
2300;DHT22;1158;48.750;9.078;2023-05-10T10:52:43;15.50;99.90
2300;DHT22;1158;48.750;9.078;2023-05-10T10:55:11;15.20;99.90
2300;DHT22;1158;48.750;9.078;2023-05-10T10:57:47;15.00;99.90
2300;DHT22;1158;48.750;9.078;2023-05-10T11:00:23;15.20;99.90
2300;DHT22;1158;48.750;9.078;2023-05-10T11:02:52;15.40;99.90
2300;DHT22;1158;48.750;9.078;2023-05-10T11:05:43;15.60;99.90
2300;DHT22;1158;48.750;9.078;2023-05-10T11:08:12;16.00;99.90
2300;DHT22;1158;48.750;9.078;2023-05-10T11:10:48;16.00;99.90
2300;DHT22;1158;48.750;9.078;2023-05-10T11:13:27;15.90;99.90
2300;DHT22;1158;48.750;9.078;2023-05-10T11:15:54;15.70;99.90
2300;DHT22;1158;48.750;9.078;2023-05-10T11:18:25;15.70;99.90
2300;DHT22;1158;48.750;9.078;2023-05-10T11:20:55;15.60;99.90
2300;DHT22;1158;48.750;9.078;2023-05-10T11:23:23;15.40;99.90
2300;DHT22;1158;48.750;9.078;2023-05-10T11:25:50;15.50;99.90
2300;DHT22;1158;48.750;9.078;2023-05-10T11:28:17;15.20;99.90
2300;DHT22;1158;48.750;9.078;2023-05-10T11:30:45;15.20;99.90
2300;DHT22;1158;48.750;9.078;2023-05-10T11:33:15;15.00;99.90
2300;DHT22;1158;48.750;9.078;2023-05-10T11:35:44;14.90;99.90
2300;DHT22;1158;48.750;9.078;2023-05-10T11:38:11;15.10;99.90
2300;DHT22;1158;48.750;9.078;2023-05-10T11:40:39;15.40;99.90
2300;DHT22;1158;48.750;9.078;2023-05-10T11:43:06;15.80;99.90
2300;DHT22;1158;48.750;9.078;2023-05-10T11:45:33;15.90;99.90
2300;DHT22;1158;48.750;9.078;2023-05-10T11:48:00;15.90;99.90
2300;DHT22;1158;48.750;9.078;2023-05-10T11:50:27;15.90;99.90
2300;DHT22;1158;48.750;9.078;2023-05-10T11:52:56;15.50;99.90
2300;DHT22;1158;48.750;9.078;2023-05-10T11:55:24;15.50;99.90
2300;DHT22;1158;48.750;9.078;2023-05-10T11:57:52;15.80;99.90
2300;DHT22;1158;48.750;9.078;2023-05-10T12:00:18;16.20;99.90
2300;DHT22;1158;48.750;9.078;2023-05-10T12:02:45;16.40;99.90
2300;DHT22;1158;48.750;9.078;2023-05-10T12:05:13;17.10;99.90
2300;DHT22;1158;48.750;9.078;2023-05-10T12:07:40;17.20;99.90
2300;DHT22;1158;48.750;9.078;2023-05-10T12:10:09;17.50;99.90
2300;DHT22;1158;48.750;9.078;2023-05-10T12:12:38;18.00;99.90
2300;DHT22;1158;48.750;9.078;2023-05-10T12:15:10;18.20;99.90
2300;DHT22;1158;48.750;9.078;2023-05-10T12:17:38;17.70;99.90
2300;DHT22;1158;48.750;9.078;2023-05-10T12:20:18;17.40;99.90
2300;DHT22;1158;48.750;9.078;2023-05-10T12:22:46;17.30;99.90
2300;DHT22;1158;48.750;9.078;2023-05-10T12:25:15;17.70;99.90
2300;DHT22;1158;48.750;9.078;2023-05-10T12:27:48;17.40;99.90
2300;DHT22;1158;48.750;9.078;2023-05-10T12:30:19;17.00;99.90
2300;DHT22;1158;48.750;9.078;2023-05-10T12:32:46;16.70;99.90
2300;DHT22;1158;48.750;9.078;2023-05-10T12:35:13;16.70;99.90
2300;DHT22;1158;48.750;9.078;2023-05-10T12:37:39;16.50;99.90
2300;DHT22;1158;48.750;9.078;2023-05-10T12:40:07;16.50;99.90
2300;DHT22;1158;48.750;9.078;2023-05-10T12:42:36;16.40;99.90
2300;DHT22;1158;48.750;9.078;2023-05-10T12:45:03;16.00;99.90
2300;DHT22;1158;48.750;9.078;2023-05-10T12:47:31;15.80;99.90
2300;DHT22;1158;48.750;9.078;2023-05-10T12:49:58;15.70;99.90
2300;DHT22;1158;48.750;9.078;2023-05-10T12:52:25;15.60;99.90
2300;DHT22;1158;48.750;9.078;2023-05-10T12:54:52;15.80;99.90
2300;DHT22;1158;48.750;9.078;2023-05-10T12:57:19;15.90;99.90
2300;DHT22;1158;48.750;9.078;2023-05-10T12:59:47;15.70;99.90
2300;DHT22;1158;48.750;9.078;2023-05-10T13:02:14;15.70;99.90
2300;DHT22;1158;48.750;9.078;2023-05-10T13:04:43;16.00;99.90
2300;DHT22;1158;48.750;9.078;2023-05-10T13:07:09;16.10;99.90
2300;DHT22;1158;48.750;9.078;2023-05-10T13:09:36;16.40;99.90
2300;DHT22;1158;48.750;9.078;2023-05-10T13:12:03;16.80;99.90
2300;DHT22;1158;48.750;9.078;2023-05-10T13:14:30;16.70;99.90
2300;DHT22;1158;48.750;9.078;2023-05-10T13:16:58;16.90;99.90
2300;DHT22;1158;48.750;9.078;2023-05-10T13:19:26;17.20;99.90
2300;DHT22;1158;48.750;9.078;2023-05-10T13:21:52;17.40;99.90
2300;DHT22;1158;48.750;9.078;2023-05-10T13:24:19;17.40;99.90
2300;DHT22;1158;48.750;9.078;2023-05-10T13:26:45;17.30;99.90
2300;DHT22;1158;48.750;9.078;2023-05-10T13:29:12;16.70;99.90
2300;DHT22;1158;48.750;9.078;2023-05-10T13:31:39;16.40;99.90
2300;DHT22;1158;48.750;9.078;2023-05-10T13:34:07;16.10;99.90
2300;DHT22;1158;48.750;9.078;2023-05-10T13:36:33;16.10;99.90
2300;DHT22;1158;48.750;9.078;2023-05-10T13:39:00;15.90;99.90
2300;DHT22;1158;48.750;9.078;2023-05-10T13:41:28;15.80;99.90
2300;DHT22;1158;48.750;9.078;2023-05-10T13:43:55;15.90;99.90
2300;DHT22;1158;48.750;9.078;2023-05-10T13:46:22;16.00;99.90
2300;DHT22;1158;48.750;9.078;2023-05-10T13:48:48;16.50;99.90
2300;DHT22;1158;48.750;9.078;2023-05-10T13:51:16;17.10;99.90
2300;DHT22;1158;48.750;9.078;2023-05-10T13:53:43;17.40;99.90
2300;DHT22;1158;48.750;9.078;2023-05-10T13:56:10;17.80;99.90
2300;DHT22;1158;48.750;9.078;2023-05-10T13:58:37;18.00;99.90
2300;DHT22;1158;48.750;9.078;2023-05-10T14:01:03;18.30;99.90
2300;DHT22;1158;48.750;9.078;2023-05-10T14:03:31;18.10;99.90
2300;DHT22;1158;48.750;9.078;2023-05-10T14:05:58;17.90;99.90
2300;DHT22;1158;48.750;9.078;2023-05-10T14:08:26;18.10;99.90
2300;DHT22;1158;48.750;9.078;2023-05-10T14:10:53;18.10;99.90
2300;DHT22;1158;48.750;9.078;2023-05-10T14:13:21;17.70;99.90
2300;DHT22;1158;48.750;9.078;2023-05-10T14:15:48;17.30;99.90
2300;DHT22;1158;48.750;9.078;2023-05-10T14:18:14;17.20;99.90
2300;DHT22;1158;48.750;9.078;2023-05-10T14:20:41;17.20;99.90
2300;DHT22;1158;48.750;9.078;2023-05-10T14:23:08;17.00;99.90
2300;DHT22;1158;48.750;9.078;2023-05-10T14:25:36;17.30;99.90
2300;DHT22;1158;48.750;9.078;2023-05-10T14:28:03;17.30;99.90
2300;DHT22;1158;48.750;9.078;2023-05-10T14:30:31;17.60;99.90
2300;DHT22;1158;48.750;9.078;2023-05-10T14:32:59;17.50;99.90
2300;DHT22;1158;48.750;9.078;2023-05-10T14:35:26;17.40;99.90
2300;DHT22;1158;48.750;9.078;2023-05-10T14:37:53;17.20;99.90
2300;DHT22;1158;48.750;9.078;2023-05-10T14:40:20;17.20;99.90
2300;DHT22;1158;48.750;9.078;2023-05-10T14:42:48;17.30;99.90
2300;DHT22;1158;48.750;9.078;2023-05-10T14:45:15;17.60;99.90
2300;DHT22;1158;48.750;9.078;2023-05-10T14:47:41;17.70;99.90
2300;DHT22;1158;48.750;9.078;2023-05-10T14:50:08;17.60;99.90
2300;DHT22;1158;48.750;9.078;2023-05-10T14:52:35;17.70;99.90
2300;DHT22;1158;48.750;9.078;2023-05-10T14:55:02;17.80;99.90
2300;DHT22;1158;48.750;9.078;2023-05-10T14:57:29;17.80;99.90
2300;DHT22;1158;48.750;9.078;2023-05-10T14:59:57;18.00;99.90
2300;DHT22;1158;48.750;9.078;2023-05-10T15:02:24;18.10;99.90
2300;DHT22;1158;48.750;9.078;2023-05-10T15:04:51;17.80;99.90
2300;DHT22;1158;48.750;9.078;2023-05-10T15:07:18;17.90;99.90
2300;DHT22;1158;48.750;9.078;2023-05-10T15:09:44;18.00;99.40
2300;DHT22;1158;48.750;9.078;2023-05-10T15:12:11;17.80;99.70
2300;DHT22;1158;48.750;9.078;2023-05-10T15:14:38;17.90;99.90
2300;DHT22;1158;48.750;9.078;2023-05-10T15:17:06;17.90;99.90
2300;DHT22;1158;48.750;9.078;2023-05-10T15:19:33;18.10;99.90
2300;DHT22;1158;48.750;9.078;2023-05-10T15:22:00;17.90;99.90
2300;DHT22;1158;48.750;9.078;2023-05-10T15:24:27;17.80;99.90
2300;DHT22;1158;48.750;9.078;2023-05-10T15:26:54;17.70;99.90
2300;DHT22;1158;48.750;9.078;2023-05-10T15:29:20;17.60;99.90
2300;DHT22;1158;48.750;9.078;2023-05-10T15:31:47;17.40;99.90
2300;DHT22;1158;48.750;9.078;2023-05-10T15:34:16;17.30;99.80
2300;DHT22;1158;48.750;9.078;2023-05-10T15:36:43;17.10;99.90
2300;DHT22;1158;48.750;9.078;2023-05-10T15:39:10;17.00;99.70
2300;DHT22;1158;48.750;9.078;2023-05-10T15:41:37;17.00;99.00
2300;DHT22;1158;48.750;9.078;2023-05-10T15:44:04;17.00;99.30
2300;DHT22;1158;48.750;9.078;2023-05-10T15:46:30;16.90;99.40
2300;DHT22;1158;48.750;9.078;2023-05-10T15:48:58;16.80;99.00
2300;DHT22;1158;48.750;9.078;2023-05-10T15:51:26;16.90;99.60
2300;DHT22;1158;48.750;9.078;2023-05-10T15:53:53;17.00;99.30
2300;DHT22;1158;48.750;9.078;2023-05-10T15:56:20;16.90;99.40
2300;DHT22;1158;48.750;9.078;2023-05-10T15:58:46;16.90;99.80
2300;DHT22;1158;48.750;9.078;2023-05-10T16:01:13;17.10;99.30
2300;DHT22;1158;48.750;9.078;2023-05-10T16:03:40;17.20;99.20
2300;DHT22;1158;48.750;9.078;2023-05-10T16:06:07;17.30;99.20
2300;DHT22;1158;48.750;9.078;2023-05-10T16:08:35;17.10;98.90